KBNO/BNO METAR and TAF weather

Enter ICAO airport designator
Station Type Date Time Source
KBNO METAR 2022/06/25 22:53 UTC NOAA

KBNO 252253Z AUTO 09009G18KT 10SM CLR 29/M05 A3021 RMK AO2 SLP205 T02891050 $


Station Type Date Time Source
KBNO Decoded METAR 2022/06/25 22:53 UTC NOAA

BURNS MUNICIPAL AIRPORT, OR, United States (KBNO) 43-36N 118-57W 1264M
Jun 25, 2022 - 06:53 PM EDT / 2022.06.25 2253 UTC
Wind: from the E (090 degrees) at 10 MPH (9 KT) gusting to 21 MPH (18 KT):0
Visibility: 10 mile(s):0
Sky conditions: clear
Temperature: 84.0 F (28.9 C)
Dew Point: 23.0 F (-5.0 C)
Relative Humidity: 10%
Pressure (altimeter): 30.21 in. Hg (1023 hPa)
ob: KBNO 252253Z AUTO 09009G18KT 10SM CLR 29/M05 A3021 RMK AO2 SLP205 T02891050
cycle: 23

Station Type Date Time Source
KBNO TAF 2022/06/25 18:22 UTC NOAA

TAF KBNO 251720Z 2518/2618 06011KT P6SM SKC
FM260600 05006KT P6SM SKC

Example: see airport list